createdAt,value
2022-12-31T00:01:28.682Z,6.79
2022-12-31T00:03:55.020Z,6.77
2022-12-31T00:06:21.387Z,6.77
2022-12-31T00:08:47.722Z,6.81
2022-12-31T00:11:14.086Z,6.79
2022-12-31T00:13:40.445Z,6.83
2022-12-31T00:16:11.741Z,6.81
2022-12-31T00:18:38.660Z,6.80
2022-12-31T00:21:04.996Z,6.77
2022-12-31T00:23:31.559Z,6.80
2022-12-31T00:25:57.911Z,6.79
2022-12-31T00:28:24.268Z,6.79
2022-12-31T00:30:50.630Z,6.81
2022-12-31T00:33:17.210Z,6.83
2022-12-31T00:35:43.939Z,6.83
2022-12-31T00:38:10.273Z,6.84
2022-12-31T00:40:36.625Z,6.81
2022-12-31T00:43:02.972Z,6.83
2022-12-31T00:45:29.330Z,6.84
2022-12-31T00:47:55.719Z,6.83
2022-12-31T00:50:22.045Z,6.84
2022-12-31T00:52:48.401Z,6.83
2022-12-31T00:55:14.946Z,6.81
2022-12-31T00:57:41.265Z,6.83
2022-12-31T01:00:07.627Z,6.85
2022-12-31T01:02:34.115Z,6.81
2022-12-31T01:05:00.589Z,6.91
2022-12-31T01:07:26.931Z,6.90
2022-12-31T01:09:53.288Z,6.91
2022-12-31T01:12:19.679Z,6.87
2022-12-31T01:14:46.032Z,6.87
2022-12-31T01:17:12.375Z,6.87
2022-12-31T01:19:38.940Z,6.87
2022-12-31T01:22:05.318Z,6.90
2022-12-31T01:24:31.657Z,6.88
2022-12-31T01:26:58.099Z,6.88
2022-12-31T01:29:24.485Z,6.90
2022-12-31T01:31:50.840Z,6.91
2022-12-31T01:34:17.193Z,6.90
2022-12-31T01:36:43.530Z,6.90
2022-12-31T01:39:09.883Z,6.91
2022-12-31T01:41:36.250Z,6.91
2022-12-31T01:44:02.584Z,6.93
2022-12-31T01:46:29.195Z,6.95
2022-12-31T01:48:55.595Z,6.94
2022-12-31T01:51:21.925Z,6.91
2022-12-31T01:53:48.247Z,6.90
2022-12-31T01:56:14.579Z,6.93
2022-12-31T01:58:40.958Z,6.95
2022-12-31T02:01:07.354Z,6.93
2022-12-31T02:03:33.742Z,6.94
2022-12-31T02:06:00.100Z,6.90
2022-12-31T02:08:26.438Z,6.94
2022-12-31T02:10:52.772Z,6.91
2022-12-31T02:13:19.107Z,6.93
2022-12-31T02:15:45.572Z,6.95
2022-12-31T02:18:12.018Z,6.91
2022-12-31T02:20:38.586Z,6.91
2022-12-31T02:23:04.950Z,6.90
2022-12-31T02:25:31.681Z,6.93
2022-12-31T02:27:58.057Z,6.95
2022-12-31T02:30:24.427Z,6.97
2022-12-31T02:32:50.805Z,6.97
2022-12-31T02:35:17.167Z,6.94
2022-12-31T02:37:43.542Z,6.94
2022-12-31T02:40:09.909Z,6.91
2022-12-31T02:42:36.562Z,6.88
2022-12-31T02:45:02.978Z,6.93
2022-12-31T02:47:29.389Z,6.90
2022-12-31T02:49:55.994Z,6.90
2022-12-31T02:52:22.385Z,6.93
2022-12-31T02:54:48.782Z,6.90
2022-12-31T02:57:15.202Z,6.90
2022-12-31T02:59:41.575Z,6.88
2022-12-31T03:02:08.493Z,6.88
2022-12-31T03:04:34.996Z,6.88
2022-12-31T03:07:01.369Z,6.85
2022-12-31T03:09:27.741Z,6.87
2022-12-31T03:11:54.317Z,6.87
2022-12-31T03:14:20.892Z,6.88
2022-12-31T03:16:47.465Z,6.85
2022-12-31T03:19:13.862Z,6.88
2022-12-31T03:21:40.266Z,6.88
2022-12-31T03:24:06.660Z,6.87
2022-12-31T03:26:33.036Z,6.87
2022-12-31T03:28:59.437Z,6.87
2022-12-31T03:31:25.893Z,6.87
2022-12-31T03:33:52.319Z,6.85
2022-12-31T03:36:18.698Z,6.87
2022-12-31T03:38:48.535Z,6.90
2022-12-31T03:41:18.884Z,6.87
2022-12-31T03:43:45.287Z,6.87
2022-12-31T03:46:11.715Z,6.87
2022-12-31T03:48:38.128Z,6.88
2022-12-31T03:51:04.491Z,6.87
2022-12-31T03:53:30.877Z,6.87
2022-12-31T03:55:57.250Z,6.87
2022-12-31T03:58:23.654Z,6.88
2022-12-31T04:00:50.114Z,6.88
2022-12-31T04:03:16.609Z,6.87
2022-12-31T04:05:43.249Z,6.87
2022-12-31T04:08:09.617Z,6.88
2022-12-31T04:10:36.010Z,6.90
2022-12-31T04:13:02.634Z,6.88
2022-12-31T04:15:29.229Z,6.90
2022-12-31T04:17:55.601Z,6.88
2022-12-31T04:20:22.174Z,6.91
2022-12-31T04:22:48.551Z,6.90
2022-12-31T04:25:14.941Z,6.90
2022-12-31T04:27:41.368Z,6.93
2022-12-31T04:30:08.060Z,6.90
2022-12-31T04:32:34.431Z,6.90
2022-12-31T04:35:00.836Z,6.91
2022-12-31T04:37:27.209Z,6.93
2022-12-31T04:39:53.593Z,6.88
2022-12-31T04:42:19.989Z,6.90
2022-12-31T04:44:46.391Z,6.91
2022-12-31T04:47:12.755Z,6.91
2022-12-31T04:49:39.339Z,6.91
2022-12-31T04:52:05.703Z,6.90
2022-12-31T04:54:32.064Z,6.88
2022-12-31T04:56:58.437Z,6.90
2022-12-31T04:59:24.801Z,6.90
2022-12-31T05:01:51.286Z,6.94
2022-12-31T05:04:17.778Z,6.91
2022-12-31T05:06:44.155Z,6.94
2022-12-31T05:09:10.533Z,6.93
2022-12-31T05:11:36.940Z,6.95
2022-12-31T05:14:03.331Z,6.94
2022-12-31T05:16:29.761Z,6.94
2022-12-31T05:18:56.189Z,6.95
2022-12-31T05:21:22.609Z,6.94
2022-12-31T05:23:49.002Z,6.94
2022-12-31T05:26:15.614Z,6.95
2022-12-31T05:28:42.241Z,6.94
2022-12-31T05:31:08.696Z,6.91
2022-12-31T05:33:35.130Z,6.93
2022-12-31T05:36:01.748Z,6.93
2022-12-31T05:38:28.143Z,6.94
2022-12-31T05:40:54.500Z,6.94
2022-12-31T05:43:21.312Z,6.97
2022-12-31T05:45:47.766Z,6.90
2022-12-31T05:48:14.217Z,6.94
2022-12-31T05:50:40.740Z,6.93
2022-12-31T05:53:08.839Z,6.97
2022-12-31T05:55:35.247Z,6.94
2022-12-31T05:58:01.628Z,6.93
2022-12-31T06:00:28.009Z,6.97
2022-12-31T06:02:54.458Z,6.94
2022-12-31T06:05:25.936Z,6.94
2022-12-31T06:07:52.610Z,6.93
2022-12-31T06:10:18.983Z,6.95
2022-12-31T06:12:45.392Z,6.95
2022-12-31T06:15:11.763Z,6.95
2022-12-31T06:17:38.147Z,6.95
2022-12-31T06:20:10.509Z,6.97
2022-12-31T06:22:39.012Z,6.95
2022-12-31T06:25:05.427Z,6.95
2022-12-31T06:27:31.855Z,6.93
2022-12-31T06:29:58.224Z,6.94
2022-12-31T06:32:24.603Z,6.93
2022-12-31T06:34:51.002Z,6.94
2022-12-31T06:37:17.408Z,6.98
2022-12-31T06:39:43.805Z,6.97
2022-12-31T06:42:10.393Z,6.95
2022-12-31T06:44:36.795Z,6.97
2022-12-31T06:47:03.396Z,6.95
2022-12-31T06:49:29.814Z,6.97
2022-12-31T06:51:56.177Z,6.95
2022-12-31T06:54:22.575Z,6.94
2022-12-31T06:56:48.982Z,6.94
2022-12-31T06:59:15.398Z,6.95
2022-12-31T07:01:41.875Z,6.97
2022-12-31T07:04:08.317Z,6.95
2022-12-31T07:06:34.701Z,6.94
2022-12-31T07:09:01.092Z,6.97
2022-12-31T07:11:27.507Z,6.95
2022-12-31T07:13:53.896Z,6.95
2022-12-31T07:16:20.315Z,6.97
2022-12-31T07:18:46.791Z,6.95
2022-12-31T07:21:13.188Z,6.94
2022-12-31T07:23:39.570Z,6.95
2022-12-31T07:26:05.979Z,6.95
2022-12-31T07:28:32.348Z,6.97
2022-12-31T07:30:58.733Z,6.97
2022-12-31T07:33:25.127Z,6.97
2022-12-31T07:35:51.533Z,6.97
2022-12-31T07:38:17.912Z,6.95
2022-12-31T07:40:44.296Z,6.95
2022-12-31T07:43:10.689Z,7.00
2022-12-31T07:45:37.077Z,6.98
2022-12-31T07:48:03.493Z,6.97
2022-12-31T07:50:29.881Z,6.95
2022-12-31T07:52:56.283Z,6.98
2022-12-31T07:55:22.907Z,6.95
2022-12-31T07:57:49.515Z,7.00
2022-12-31T08:00:15.929Z,7.00
2022-12-31T08:02:42.358Z,7.00
2022-12-31T08:05:08.963Z,7.01
2022-12-31T08:07:35.331Z,7.00
2022-12-31T08:10:01.692Z,7.00
2022-12-31T08:12:28.069Z,6.97
2022-12-31T08:14:54.684Z,7.00
2022-12-31T08:17:21.288Z,6.98
2022-12-31T08:19:47.877Z,7.00
2022-12-31T08:22:14.490Z,7.02
2022-12-31T08:24:40.887Z,6.97
2022-12-31T08:27:07.484Z,7.01
2022-12-31T08:29:33.871Z,7.02
2022-12-31T08:32:00.488Z,7.00
2022-12-31T08:34:26.879Z,7.05
2022-12-31T08:36:53.510Z,7.01
2022-12-31T08:39:19.908Z,7.04
2022-12-31T08:41:46.521Z,7.02
2022-12-31T08:44:12.941Z,7.01
2022-12-31T08:46:39.558Z,7.02
2022-12-31T08:49:06.145Z,7.02
2022-12-31T08:51:32.538Z,7.02
2022-12-31T08:53:59.143Z,7.05
2022-12-31T08:56:25.728Z,7.02
2022-12-31T08:58:52.134Z,7.04
2022-12-31T09:01:18.593Z,7.04
2022-12-31T09:03:45.114Z,7.01
2022-12-31T09:06:11.544Z,7.02
2022-12-31T09:08:38.228Z,7.02
2022-12-31T09:11:04.597Z,7.07
2022-12-31T09:13:30.969Z,7.05
2022-12-31T09:15:57.353Z,7.04
2022-12-31T09:18:27.109Z,7.04
2022-12-31T09:20:57.687Z,7.05
2022-12-31T09:23:26.842Z,7.05
2022-12-31T09:25:54.179Z,7.07
2022-12-31T09:28:20.569Z,7.07
2022-12-31T09:30:47.173Z,7.04
2022-12-31T09:33:13.541Z,7.04
2022-12-31T09:35:39.939Z,7.07
2022-12-31T09:38:11.297Z,7.07
2022-12-31T09:40:38.139Z,7.07
2022-12-31T09:43:04.534Z,7.07
2022-12-31T09:45:31.178Z,7.04
2022-12-31T09:47:57.586Z,7.07
2022-12-31T09:50:23.965Z,7.04
2022-12-31T09:52:50.359Z,7.07
2022-12-31T09:55:16.751Z,7.07
2022-12-31T09:57:43.160Z,7.09
2022-12-31T10:00:09.551Z,7.08
2022-12-31T10:02:36.034Z,7.09
2022-12-31T10:05:02.552Z,7.05
2022-12-31T10:07:29.139Z,7.07
2022-12-31T10:09:55.749Z,7.07
2022-12-31T10:12:22.124Z,7.08
2022-12-31T10:14:48.488Z,7.07
2022-12-31T10:17:14.853Z,7.07
2022-12-31T10:19:41.252Z,7.08
2022-12-31T10:22:07.844Z,7.08
2022-12-31T10:24:34.238Z,7.07
2022-12-31T10:27:00.838Z,7.08
2022-12-31T10:29:27.428Z,7.08
2022-12-31T10:31:53.820Z,7.11
2022-12-31T10:34:20.327Z,7.08
2022-12-31T10:36:46.745Z,7.11
2022-12-31T10:39:17.536Z,7.09
2022-12-31T10:41:47.151Z,7.07
2022-12-31T10:44:13.537Z,7.09
2022-12-31T10:46:40.166Z,7.11
2022-12-31T10:49:06.559Z,7.08
2022-12-31T10:51:32.948Z,7.11
2022-12-31T10:53:59.347Z,7.07
2022-12-31T10:56:25.733Z,7.12
2022-12-31T10:58:52.128Z,7.09
2022-12-31T11:01:18.542Z,7.09
2022-12-31T11:03:45.328Z,7.12
2022-12-31T11:06:11.735Z,7.14
2022-12-31T11:08:38.096Z,7.14
2022-12-31T11:11:04.497Z,7.15
2022-12-31T11:13:31.095Z,7.12
2022-12-31T11:15:57.722Z,7.15
2022-12-31T11:18:24.131Z,7.15
2022-12-31T11:20:50.495Z,7.16
2022-12-31T11:23:16.872Z,7.12
2022-12-31T11:25:43.245Z,7.16
2022-12-31T11:28:09.834Z,7.18
2022-12-31T11:30:36.432Z,7.18
2022-12-31T11:33:02.827Z,7.16
2022-12-31T11:35:29.451Z,7.19
2022-12-31T11:37:55.848Z,7.19
2022-12-31T11:40:22.235Z,7.21
2022-12-31T11:42:48.631Z,7.19
2022-12-31T11:45:15.036Z,7.16
2022-12-31T11:48:20.095Z,7.21
2022-12-31T11:50:28.262Z,7.18
2022-12-31T11:52:54.867Z,7.22
2022-12-31T11:55:21.273Z,7.21
2022-12-31T11:57:47.679Z,7.23
2022-12-31T12:00:14.128Z,7.23
2022-12-31T12:02:40.607Z,7.23
2022-12-31T12:05:10.996Z,7.22
2022-12-31T12:07:37.894Z,7.23
2022-12-31T12:10:04.262Z,7.26
2022-12-31T12:12:30.829Z,7.23
2022-12-31T12:14:57.201Z,7.25
2022-12-31T12:17:23.607Z,7.23
2022-12-31T12:19:49.995Z,7.26
2022-12-31T12:22:16.386Z,7.25
2022-12-31T12:24:42.795Z,7.25
2022-12-31T12:27:09.211Z,7.26
2022-12-31T12:29:35.595Z,7.26
2022-12-31T12:32:01.979Z,7.26
2022-12-31T12:34:28.670Z,7.26
2022-12-31T12:36:55.259Z,7.25
2022-12-31T12:39:21.620Z,7.26
2022-12-31T12:41:47.986Z,7.28
2022-12-31T12:44:14.388Z,7.28
2022-12-31T12:46:46.082Z,7.29
2022-12-31T12:49:14.293Z,7.28
2022-12-31T12:51:40.659Z,7.28
2022-12-31T12:54:07.050Z,7.28
2022-12-31T12:56:33.652Z,7.26
2022-12-31T12:59:00.024Z,7.29
2022-12-31T13:01:26.531Z,7.29
2022-12-31T13:04:23.786Z,7.29
2022-12-31T13:06:39.750Z,7.31
2022-12-31T13:09:06.130Z,7.29
2022-12-31T13:11:32.500Z,7.29
2022-12-31T13:13:58.860Z,7.28
2022-12-31T13:16:25.298Z,7.26
2022-12-31T13:18:51.750Z,7.26
2022-12-31T13:21:18.370Z,7.29
2022-12-31T13:23:44.796Z,7.31
2022-12-31T13:26:11.399Z,7.31
2022-12-31T13:28:37.796Z,7.31
2022-12-31T13:31:07.026Z,7.31
2022-12-31T13:33:33.689Z,7.29
2022-12-31T13:36:00.260Z,7.29
2022-12-31T13:38:26.655Z,7.32
2022-12-31T13:40:53.245Z,7.31
2022-12-31T13:43:19.600Z,7.31
2022-12-31T13:45:46.054Z,7.31
2022-12-31T13:48:12.452Z,7.33
2022-12-31T13:50:38.847Z,7.31
2022-12-31T13:53:05.265Z,7.32
2022-12-31T13:55:31.664Z,7.31
2022-12-31T13:57:58.047Z,7.31
2022-12-31T14:00:24.429Z,7.29
2022-12-31T14:02:50.854Z,7.33
2022-12-31T14:05:17.529Z,7.32
2022-12-31T14:07:45.774Z,7.35
2022-12-31T14:10:12.616Z,7.32
2022-12-31T14:12:39.006Z,7.31
2022-12-31T14:15:05.592Z,7.32
2022-12-31T14:17:32.190Z,7.32
2022-12-31T14:19:58.599Z,7.33
2022-12-31T14:22:24.986Z,7.32
2022-12-31T14:24:51.386Z,7.35
2022-12-31T14:27:17.776Z,7.32
2022-12-31T14:29:44.164Z,7.35
2022-12-31T14:32:10.616Z,7.32
2022-12-31T14:34:37.255Z,7.31
2022-12-31T14:37:03.616Z,7.31
2022-12-31T14:39:30.037Z,7.32
2022-12-31T14:41:56.616Z,7.31
2022-12-31T14:44:23.232Z,7.32
2022-12-31T14:46:49.641Z,7.32
2022-12-31T14:49:16.070Z,7.31
2022-12-31T14:51:42.449Z,7.29
2022-12-31T14:54:08.827Z,7.29
2022-12-31T14:56:35.415Z,7.32
2022-12-31T14:59:02.016Z,7.31
2022-12-31T15:01:28.464Z,7.29
2022-12-31T15:03:55.124Z,7.29
2022-12-31T15:06:21.524Z,7.29
2022-12-31T15:08:47.916Z,7.31
2022-12-31T15:11:14.317Z,7.29
2022-12-31T15:13:40.702Z,7.28
2022-12-31T15:16:07.300Z,7.29
2022-12-31T15:18:33.687Z,7.28
2022-12-31T15:21:00.255Z,7.28
2022-12-31T15:23:26.839Z,7.26
2022-12-31T15:25:53.217Z,7.26
2022-12-31T15:28:19.820Z,7.28
2022-12-31T15:30:46.234Z,7.28
2022-12-31T15:33:12.653Z,7.26
2022-12-31T15:35:39.027Z,7.28
2022-12-31T15:38:05.428Z,7.28
2022-12-31T15:40:31.828Z,7.25
2022-12-31T15:42:58.214Z,7.26
2022-12-31T15:45:24.594Z,7.26
2022-12-31T15:47:50.987Z,7.26
2022-12-31T15:50:17.576Z,7.28
2022-12-31T15:52:43.941Z,7.25
2022-12-31T15:55:10.337Z,7.25
2022-12-31T15:57:36.932Z,7.25
2022-12-31T16:00:03.344Z,7.26
2022-12-31T16:02:29.890Z,7.25
2022-12-31T16:04:56.607Z,7.23
2022-12-31T16:07:23.002Z,7.23
2022-12-31T16:09:49.604Z,7.25
2022-12-31T16:12:16.009Z,7.23
2022-12-31T16:14:42.407Z,7.25
2022-12-31T16:17:09.040Z,7.25
2022-12-31T16:19:35.616Z,7.26
2022-12-31T16:22:01.984Z,7.23
2022-12-31T16:24:28.366Z,7.22
2022-12-31T16:26:54.726Z,7.23
2022-12-31T16:29:21.117Z,7.22
2022-12-31T16:31:47.479Z,7.22
2022-12-31T16:34:14.093Z,7.25
2022-12-31T16:36:40.506Z,7.25
2022-12-31T16:39:06.895Z,7.25
2022-12-31T16:41:33.285Z,7.22
2022-12-31T16:43:59.665Z,7.23
2022-12-31T16:46:26.145Z,7.21
2022-12-31T16:48:52.605Z,7.26
2022-12-31T16:51:18.981Z,7.21
2022-12-31T16:53:45.376Z,7.25
2022-12-31T16:56:11.779Z,7.19
2022-12-31T16:58:38.379Z,7.23
2022-12-31T17:01:04.821Z,7.22
2022-12-31T17:03:31.283Z,7.23
2022-12-31T17:05:57.943Z,7.23
2022-12-31T17:08:24.338Z,7.19
2022-12-31T17:10:50.741Z,7.23
2022-12-31T17:13:27.401Z,7.19
2022-12-31T17:15:54.986Z,7.18
2022-12-31T17:18:21.414Z,7.19
2022-12-31T17:20:47.811Z,7.21
2022-12-31T17:23:14.172Z,7.21
2022-12-31T17:25:40.547Z,7.19
2022-12-31T17:28:06.938Z,7.19
2022-12-31T17:30:33.327Z,7.16
2022-12-31T17:32:59.692Z,7.18
2022-12-31T17:35:26.080Z,7.16
2022-12-31T17:37:52.455Z,7.19
2022-12-31T17:40:49.937Z,7.16
2022-12-31T17:43:05.197Z,7.16
2022-12-31T17:45:31.593Z,7.18
2022-12-31T17:47:58.002Z,7.19
2022-12-31T17:50:24.408Z,7.15
2022-12-31T17:52:50.774Z,7.18
2022-12-31T17:55:17.171Z,7.15
2022-12-31T17:57:43.594Z,7.16
2022-12-31T18:00:09.965Z,7.16
2022-12-31T18:02:36.972Z,7.15
2022-12-31T18:05:03.406Z,7.18
2022-12-31T18:07:29.767Z,7.16
2022-12-31T18:09:56.132Z,7.15
2022-12-31T18:12:22.519Z,7.15
2022-12-31T18:14:48.928Z,7.16
2022-12-31T18:17:15.366Z,7.16
2022-12-31T18:20:11.134Z,7.15
2022-12-31T18:22:28.084Z,7.15
2022-12-31T18:24:54.461Z,7.14
2022-12-31T18:27:20.849Z,7.15
2022-12-31T18:29:47.216Z,7.12
2022-12-31T18:32:13.667Z,7.14
2022-12-31T18:34:40.061Z,7.15
2022-12-31T18:37:06.442Z,7.14
2022-12-31T18:39:33.978Z,7.15
2022-12-31T18:42:00.389Z,7.14
2022-12-31T18:44:26.964Z,7.15
2022-12-31T18:46:53.586Z,7.15
2022-12-31T18:49:19.954Z,7.14
2022-12-31T18:51:46.559Z,7.14
2022-12-31T18:54:12.944Z,7.14
2022-12-31T18:56:44.819Z,7.11
2022-12-31T18:59:13.541Z,7.11
2022-12-31T19:01:40.279Z,7.14
2022-12-31T19:04:06.754Z,7.11
2022-12-31T19:06:33.339Z,7.09
2022-12-31T19:09:01.146Z,7.11
2022-12-31T19:11:27.741Z,7.11
2022-12-31T19:13:54.120Z,7.11
2022-12-31T19:16:20.509Z,7.08
2022-12-31T19:18:46.906Z,7.14
2022-12-31T19:21:13.264Z,7.11
2022-12-31T19:23:39.852Z,7.11
2022-12-31T19:26:06.247Z,7.08
2022-12-31T19:28:32.649Z,7.11
2022-12-31T19:30:59.085Z,7.11
2022-12-31T19:33:25.478Z,7.11
2022-12-31T19:35:51.869Z,7.09
2022-12-31T19:38:18.263Z,7.09
2022-12-31T19:40:44.652Z,7.09
2022-12-31T19:43:11.039Z,7.09
2022-12-31T19:45:37.443Z,7.09
2022-12-31T19:48:03.856Z,7.07
2022-12-31T19:50:30.250Z,7.09
2022-12-31T19:52:56.625Z,7.09
2022-12-31T19:55:22.987Z,7.08
2022-12-31T19:57:49.372Z,7.08
2022-12-31T20:00:15.747Z,7.09
2022-12-31T20:02:42.566Z,7.07
2022-12-31T20:05:09.102Z,7.08
2022-12-31T20:07:35.515Z,7.09
2022-12-31T20:10:01.948Z,7.09
2022-12-31T20:12:28.521Z,7.08
2022-12-31T20:14:54.914Z,7.07
2022-12-31T20:17:21.304Z,7.08
2022-12-31T20:19:47.887Z,7.07
2022-12-31T20:22:14.466Z,7.08
2022-12-31T20:24:40.851Z,7.07
2022-12-31T20:27:07.252Z,7.07
2022-12-31T20:29:33.636Z,7.05
2022-12-31T20:32:00.041Z,7.07
2022-12-31T20:34:26.465Z,7.07
2022-12-31T20:36:52.881Z,7.07
2022-12-31T20:39:19.281Z,7.08
2022-12-31T20:41:45.647Z,7.08
2022-12-31T20:44:12.012Z,7.07
2022-12-31T20:46:38.441Z,7.05
2022-12-31T20:49:04.885Z,7.08
2022-12-31T20:51:31.294Z,7.07
2022-12-31T20:53:57.719Z,7.08
2022-12-31T20:56:24.379Z,7.07
2022-12-31T20:58:50.798Z,7.05
2022-12-31T21:01:17.324Z,7.05
2022-12-31T21:06:30.422Z,7.07
2022-12-31T21:08:56.861Z,7.07
2022-12-31T21:11:23.494Z,7.05
2022-12-31T21:13:49.898Z,7.05
2022-12-31T21:16:16.344Z,7.05
2022-12-31T21:18:42.763Z,7.05
2022-12-31T21:21:09.336Z,7.04
2022-12-31T21:23:35.988Z,7.05
2022-12-31T21:26:02.391Z,7.05
2022-12-31T21:28:28.767Z,7.05
2022-12-31T21:30:55.207Z,7.04
2022-12-31T21:33:21.620Z,7.04
2022-12-31T21:35:53.571Z,7.04
2022-12-31T21:38:20.632Z,7.05
2022-12-31T21:40:47.036Z,7.05
2022-12-31T21:43:13.415Z,7.04
2022-12-31T21:45:40.014Z,7.04
2022-12-31T21:48:06.382Z,7.02
2022-12-31T21:50:32.732Z,7.02
2022-12-31T21:52:59.103Z,7.05
2022-12-31T21:55:25.474Z,7.05
2022-12-31T21:58:24.832Z,7.07
2022-12-31T22:00:43.048Z,7.04
2022-12-31T22:03:09.845Z,7.04
2022-12-31T22:05:36.317Z,7.04
2022-12-31T22:08:02.682Z,7.02
2022-12-31T22:10:29.075Z,7.05
2022-12-31T22:12:55.467Z,7.04
2022-12-31T22:15:21.874Z,7.05
2022-12-31T22:17:48.482Z,7.05
2022-12-31T22:20:26.881Z,7.05
2022-12-31T22:22:54.401Z,7.07
2022-12-31T22:25:20.787Z,7.05
2022-12-31T22:28:11.524Z,7.07
2022-12-31T22:30:33.740Z,7.07
2022-12-31T22:33:00.141Z,7.07
2022-12-31T22:35:26.508Z,7.07
2022-12-31T22:37:59.009Z,7.07
2022-12-31T22:40:28.046Z,7.05
2022-12-31T22:42:54.426Z,7.07
2022-12-31T22:45:20.865Z,7.07
2022-12-31T22:47:47.275Z,7.07
2022-12-31T22:50:13.854Z,7.04
2022-12-31T22:52:40.239Z,7.05
2022-12-31T22:55:06.624Z,7.05
2022-12-31T22:57:33.030Z,7.05
2022-12-31T22:59:59.416Z,7.05
2022-12-31T23:02:25.869Z,7.07
2022-12-31T23:04:52.549Z,7.05
2022-12-31T23:07:38.914Z,7.08
2022-12-31T23:10:05.322Z,7.09
2022-12-31T23:12:32.773Z,7.04
2022-12-31T23:14:59.182Z,7.08
2022-12-31T23:17:31.265Z,7.08
2022-12-31T23:19:58.758Z,7.05
2022-12-31T23:22:25.377Z,7.07
2022-12-31T23:24:51.756Z,7.07
2022-12-31T23:27:18.758Z,7.04
2022-12-31T23:29:47.565Z,7.07
2022-12-31T23:32:14.427Z,7.05
2022-12-31T23:34:40.798Z,7.05
2022-12-31T23:37:07.407Z,7.08
2022-12-31T23:39:34.054Z,7.08
2022-12-31T23:42:00.470Z,7.07
2022-12-31T23:44:26.853Z,7.11
2022-12-31T23:46:53.322Z,7.08
2022-12-31T23:49:19.928Z,7.09
2022-12-31T23:51:46.308Z,7.08
2022-12-31T23:54:12.675Z,7.12
2022-12-31T23:56:39.078Z,7.11
2022-12-31T23:59:05.665Z,7.12
